Troy, MI (48083)

5:54 PM EDT on May 04, 2015 (GMT -0400)
Big Beaver & Livernois | | Change Station
CLOSE
Current Station
Personal Weather Station
Location: Troy, MI
Elevation: 682 ft
Nearby Weather Stations

Elev 682 ft 42.57 °N, 83.14 °W | Updated 11 minutes ago

Mostly Cloudy
Mostly Cloudy
78.3 °F
Feels Like 79 °F
N
2.2
Wind Variable Wind from West

Today
High -- | Low -- °F
--% Chance of Precip.
Yesterday
High -- | Low -- °F
Precip. -- in
6:23 AM 8:35 PM
Waxing Gibbous, 99% visible
Pressure 30.10 in
Visibility 10.0 miles
Clouds Scattered Clouds 6000 ft
Heat Index 79 °F
Dew Point 58 °F
Humidity 49%
Rainfall 0.00 in
Snow Depth Not available.
UV 3 out of 12
Pollen 8.60 out of 12
Air Quality Not available.
Flu Activity Regional
METAR KVLL 042135Z AUTO 31008KT 10SM SCT060 25/12 A3010 RMK AO2 T02520118

More Conditions Fewer Conditions

Pressure 30.10 in
Visibility 10.0 miles
Clouds Scattered Clouds 6000 ft
Heat Index 79 °F
Dew Point 58 °F
Humidity 49%
Rainfall 0.00 in
Snow Depth Not available.
UV 3 out of 12
Pollen 8.60 out of 12
Air Quality Not available.
Flu Activity Regional
METAR KVLL 042135Z AUTO 31008KT 10SM SCT060 25/12 A3010 RMK AO2 T02520118

More Conditions Fewer Conditions

Nepal has a long way to go to dig out and rebuild from a devastating earthquake. We have teamed up with several charities and organizations to make contributing to the relief effort as easy as possible.
How you can help: Portlight Strategies | Red Cross

10-Day Weather Forecast

Almanac

Astronomy

May. 04, 2015 Rise Set
Actual Time
Civil Twilight
Nautical Twilight
Astronomical Twilight
Moon
Length of Visible Light
Length of Day
Tomorrow will be .
, % of the Moon is Illuminated

Today's Extremes

State Highs State Lows

Community

WunderPhotos

Upload Photos

1,818,707 photos uploaded!

WunderBlogs® & News

Nearby

Air Quality

  Air Quality AQ Index Pollutant
Not available.

Snow Depth

Station Depth Elevation

Earthquake Activity

City Distance Mag. Time & Date
Minimum magnitude displayed is 2.5.

Coastal Water Temperatures

Place Temperature

Stations

Nearby Weather Stations

Station Location Temp. Windchill Dew Point Humidity Wind Precip. Elev Updated Type